Brogan, Oregon
Current Conditions -  °F | °C
As of 2:53 PM on Monday 24 Nov 2014 (Local Time) from KONO Reporting Station
Clear Clear  
Wind Chill: 40°   Ceiling: Unl
Heat Index: 43°   Visibility: 10mi
Dew Point: 32°   Wind: 5mph
Humidity: 65%   Direction: 90°E
Pressure: 30.43"   Gusts: NA
Location:  44.25°N, 117.52°W
Report Text: KONO 242153Z AUTO 09004KT 10SM CLR 06/00 A3043 RMK AO2 SLP321 T00610000
Loading
Personal Weather Stations






























Interactive Weather Map New forecast layout! Learn more

10-Day Weather Forecast

Advertisements
Track Severe Weather on mobile